Time;durP1;ratioP1;P1;durP2;ratioP2;P2;SDS_P1;SDS_P2;PMS_P1;PMS_P2;Temp;Humidity;BMP_temperature;BMP_pressure;BME280_temperature;BME280_humidity;BME280_pressure;Samples;Min_cycle;Max_cycle;Signal;HPM_P1;HPM_P2
2022/09/29 00:00:32;;;;;;;52.90;26.33;;;;;;;5.04;100.00;99699.44;1977636;28;20028;-75
2022/09/29 00:01:29;;;;;;;53.05;25.63;;;;;;;5.04;100.00;99694.28;1978010;28;20017;-76
2022/09/29 00:02:27;;;;;;;52.63;26.08;;;;;;;5.02;100.00;99693.47;1978266;28;20044;-74
2022/09/29 00:03:24;;;;;;;53.85;26.25;;;;;;;4.99;100.00;99699.59;1977522;28;20054;-74
2022/09/29 00:04:22;;;;;;;54.08;25.85;;;;;;;4.98;100.00;99694.50;1977739;28;20362;-75
2022/09/29 00:05:20;;;;;;;55.30;25.63;;;;;;;4.97;100.00;99687.63;1978158;28;20463;-75
2022/09/29 00:06:18;;;;;;;55.50;25.85;;;;;;;4.95;100.00;99704.94;1978172;28;20044;-74
2022/09/29 00:07:15;;;;;;;52.75;25.45;;;;;;;4.95;100.00;99694.59;1978284;28;20509;-73
2022/09/29 00:08:12;;;;;;;54.78;24.67;;;;;;;4.90;100.00;99693.03;1977509;28;20026;-76
2022/09/29 00:09:10;;;;;;;46.88;24.50;;;;;;;4.89;100.00;99696.53;1977641;28;20048;-73
2022/09/29 00:10:07;;;;;;;50.30;24.75;;;;;;;4.92;100.00;99695.56;1978107;28;20380;-75
2022/09/29 00:11:14;;;;;;;53.10;25.30;;;;;;;4.93;100.00;99706.75;1978105;28;20040;-76
2022/09/29 00:12:12;;;;;;;52.80;24.27;;;;;;;4.89;100.00;99701.69;1977431;28;20488;-74
2022/09/29 00:13:09;;;;;;;61.08;24.80;;;;;;;4.86;100.00;99696.63;1977660;28;20033;-74
2022/09/29 00:14:06;;;;;;;53.33;23.70;;;;;;;4.82;100.00;99696.81;1976673;28;20052;-74
2022/09/29 00:15:05;;;;;;;48.83;25.13;;;;;;;4.79;100.00;99700.34;1975226;28;20060;-74
2022/09/29 00:16:03;;;;;;;53.22;24.45;;;;;;;4.74;100.00;99695.34;1976543;28;20040;-74
2022/09/29 00:17:00;;;;;;;46.17;22.90;;;;;;;4.72;100.00;99693.72;1977568;28;20481;-75
2022/09/29 00:17:59;;;;;;;53.83;23.55;;;;;;;4.68;100.00;99698.16;1978090;28;20037;-73
2022/09/29 00:18:56;;;;;;;50.38;23.95;;;;;;;4.64;100.00;99701.75;1978105;28;20026;-74
2022/09/29 00:19:53;;;;;;;50.75;24.20;;;;;;;4.62;100.00;99699.22;1978038;28;20413;-74
2022/09/29 00:21:04;;;;;;;49.50;24.33;;;;;;;4.60;100.00;99695.84;1978067;28;20051;-75
2022/09/29 00:22:01;;;;;;;48.45;24.02;;;;;;;4.56;100.00;99699.44;1978114;28;20033;-75
2022/09/29 00:22:59;;;;;;;45.70;23.10;;;;;;;4.53;100.00;99704.72;1977954;28;20039;-75
2022/09/29 00:24:00;;;;;;;51.58;23.00;;;;;;;4.52;100.00;99695.28;1978077;28;20025;-75
2022/09/29 00:24:57;;;;;;;47.85;23.13;;;;;;;4.48;100.00;99696.31;1978072;28;20021;-74
2022/09/29 00:26:11;;;;;;;49.95;23.98;;;;;;;4.43;100.00;99693.00;1978088;28;20108;-74
2022/09/29 00:27:08;;;;;;;48.13;22.23;;;;;;;4.40;100.00;99703.44;1978027;28;20040;-74
2022/09/29 00:28:05;;;;;;;51.10;23.23;;;;;;;4.38;100.00;99696.59;1978043;28;20056;-75
2022/09/29 00:29:03;;;;;;;52.20;24.73;;;;;;;4.38;100.00;99691.44;1978002;28;20480;-74
2022/09/29 00:30:01;;;;;;;52.53;23.38;;;;;;;4.37;100.00;99694.06;1977977;28;20025;-73
2022/09/29 00:31:01;;;;;;;49.90;23.75;;;;;;;4.34;100.00;99695.03;1977970;28;20040;-74
2022/09/29 00:31:58;;;;;;;47.60;22.88;;;;;;;4.33;100.00;99695.94;1978029;28;20121;-74
2022/09/29 00:32:56;;;;;;;45.75;22.92;;;;;;;4.31;100.00;99687.38;1978019;28;20029;-74
2022/09/29 00:33:53;;;;;;;53.30;23.10;;;;;;;4.31;100.00;99700.28;1978009;28;20028;-75
2022/09/29 00:34:51;;;;;;;53.50;23.40;;;;;;;4.30;100.00;99698.63;1977828;28;20480;-73
2022/09/29 00:35:57;;;;;;;50.08;23.63;;;;;;;4.28;100.00;99689.25;1978000;28;20082;-74
2022/09/29 00:36:55;;;;;;;46.90;23.20;;;;;;;4.26;100.00;99691.88;1977743;28;20110;-75
2022/09/29 00:37:52;;;;;;;51.70;24.20;;;;;;;4.26;100.00;99699.63;1978038;28;20036;-74
2022/09/29 00:38:53;;;;;;;47.97;23.70;;;;;;;4.26;100.00;99697.03;1977917;28;20025;-74
2022/09/29 00:39:52;;;;;;;49.42;24.10;;;;;;;4.28;100.00;99700.44;1977221;28;20165;-74
2022/09/29 00:40:50;;;;;;;52.40;24.35;;;;;;;4.29;100.00;99686.59;1977387;28;20014;-75
2022/09/29 00:41:47;;;;;;;52.40;25.73;;;;;;;4.31;100.00;99699.47;1977980;28;20416;-73
2022/09/29 00:42:45;;;;;;;57.63;25.60;;;;;;;4.33;100.00;99687.34;1977997;28;20484;-75
2022/09/29 00:44:03;;;;;;;52.80;25.08;;;;;;;4.34;100.00;99689.88;1977862;28;20480;-75
2022/09/29 00:45:03;;;;;;;49.42;23.85;;;;;;;4.34;100.00;99689.88;1975590;28;20035;-74
2022/09/29 00:46:01;;;;;;;61.80;24.83;;;;;;;4.35;100.00;99695.88;1977248;28;20033;-74
2022/09/29 00:47:03;;;;;;;53.05;24.77;;;;;;;4.33;100.00;99693.34;1977466;28;20035;-74
2022/09/29 00:48:16;;;;;;;54.97;23.70;;;;;;;4.31;100.00;99689.97;1985657;28;20027;-73
2022/09/29 00:49:17;;;;;;;49.33;23.02;;;;;;;4.29;100.00;99696.94;1977894;28;20029;-75
2022/09/29 00:50:33;;;;;;;47.40;23.15;;;;;;;4.30;100.00;99696.03;1978176;28;20025;-74
2022/09/29 00:51:35;;;;;;;50.75;23.10;;;;;;;4.32;100.00;99698.56;1978022;28;20045;-75
2022/09/29 00:52:43;;;;;;;52.75;24.17;;;;;;;4.32;100.00;99701.16;1978342;28;20030;-74
2022/09/29 00:53:42;;;;;;;52.30;24.40;;;;;;;4.29;100.00;99702.09;1977946;28;20033;-74
2022/09/29 00:54:47;;;;;;;57.10;25.38;;;;;;;4.31;100.00;99699.47;1977916;28;20041;-75
2022/09/29 00:56:08;;;;;;;54.85;24.60;;;;;;;4.34;100.00;99694.16;1977806;28;20396;-75
2022/09/29 00:57:09;;;;;;;46.35;22.05;;;;;;;4.29;100.00;99696.94;1977865;28;20057;-74
2022/09/29 00:58:27;;;;;;;53.92;25.35;;;;;;;4.27;100.00;99698.72;1977719;28;20100;-74
2022/09/29 00:59:41;;;;;;;54.47;24.17;;;;;;;4.23;100.00;99697.13;1977045;28;20035;-73
2022/09/29 01:00:39;;;;;;;51.28;23.35;;;;;;;4.20;100.00;99692.94;1977293;28;20123;-74
2022/09/29 01:01:36;;;;;;;52.90;24.20;;;;;;;4.19;100.00;99700.72;1977851;28;20062;-74
2022/09/29 01:02:41;;;;;;;60.90;24.98;;;;;;;4.15;100.00;99692.25;1977724;28;20033;-74
2022/09/29 01:03:45;;;;;;;55.03;23.42;;;;;;;4.12;100.00;99693.22;1977763;28;20099;-73
2022/09/29 01:04:45;;;;;;;53.67;23.95;;;;;;;4.10;100.00;99692.41;1977698;28;20036;-73
2022/09/29 01:05:50;;;;;;;47.20;22.83;;;;;;;4.14;100.00;99693.13;1977794;28;20451;-74
2022/09/29 01:06:54;;;;;;;48.75;23.65;;;;;;;4.17;100.00;99692.19;1977480;28;20029;-74
2022/09/29 01:07:52;;;;;;;51.58;24.42;;;;;;;4.14;100.00;99687.13;1977820;28;20040;-73
2022/09/29 01:09:03;;;;;;;57.67;25.30;;;;;;;4.12;100.00;99689.75;1977669;28;20029;-75
2022/09/29 01:10:02;;;;;;;53.33;24.20;;;;;;;4.11;100.00;99688.91;1977134;28;20101;-75
2022/09/29 01:11:02;;;;;;;49.85;24.20;;;;;;;4.08;100.00;99683.84;1977172;28;20513;-74
2022/09/29 01:12:01;;;;;;;52.35;24.23;;;;;;;4.04;100.00;99687.44;1976791;28;20029;-73
2022/09/29 01:12:58;;;;;;;47.67;23.27;;;;;;;4.03;100.00;99685.75;1977178;28;20036;-73
2022/09/29 01:14:02;;;;;;;53.85;24.30;;;;;;;4.03;100.00;99685.75;1977648;28;20027;-73
2022/09/29 01:14:59;;;;;;;56.15;24.15;;;;;;;4.01;100.00;99687.56;1974552;28;20058;-74
2022/09/29 01:15:57;;;;;;;56.22;23.63;;;;;;;3.98;100.00;99691.06;1977040;28;20043;-73
2022/09/29 01:16:54;;;;;;;56.40;24.48;;;;;;;3.97;100.00;99691.13;1977521;28;20030;-72
2022/09/29 01:17:52;;;;;;;50.20;23.90;;;;;;;3.98;100.00;99683.31;1977643;28;20028;-74
2022/09/29 01:18:51;;;;;;;50.00;23.83;;;;;;;4.04;100.00;99692.59;1977696;28;20056;-74
2022/09/29 01:20:12;;;;;;;52.55;25.58;;;;;;;4.05;100.00;99686.56;1977765;28;20465;-74
2022/09/29 01:21:24;;;;;;;46.80;23.05;;;;;;;4.02;100.00;99694.41;1977436;28;20034;-73
2022/09/29 01:22:57;;;;;;;53.05;23.67;;;;;;;4.00;100.00;99691.00;1977637;28;20038;-73
2022/09/29 01:24:18;;;;;;;49.33;22.88;;;;;;;3.98;100.00;99687.66;1977581;28;20530;-74
2022/09/29 01:25:43;;;;;;;52.85;22.40;;;;;;;3.98;100.00;99688.47;1977546;28;20034;-74
2022/09/29 01:27:04;;;;;;;52.88;22.08;;;;;;;3.97;100.00;99691.97;1977633;28;20060;-73
2022/09/29 01:28:10;;;;;;;;;;;;;;;3.96;100.00;99692.00;1978052;28;20052;-74
2022/09/29 01:29:36;;;;;;;46.60;19.70;;;;;;;3.95;100.00;99693.78;1977598;28;19948;-73
2022/09/29 01:30:48;;;;;;;47.63;21.27;;;;;;;3.94;100.00;99697.22;1977541;28;20037;-74
2022/09/29 01:32:36;;;;;;;49.25;22.30;;;;;;;3.92;100.00;99693.88;1977442;28;20040;-76
2022/09/29 01:34:03;;;;;;;47.55;21.35;;;;;;;3.91;100.00;99693.91;1968758;28;20312;-73
2022/09/29 01:35:09;;;;;;;50.45;21.92;;;;;;;3.89;100.00;99693.09;1977720;28;20043;-75
2022/09/29 01:36:48;;;;;;;55.85;23.35;;;;;;;3.88;100.00;99696.59;1977491;28;20064;-72
2022/09/29 01:38:10;;;;;;;51.88;21.17;;;;;;;3.84;100.00;99694.09;1977457;28;20412;-74
2022/09/29 01:39:35;;;;;;;52.33;21.15;;;;;;;3.85;100.00;99698.41;1977551;28;20036;-73
2022/09/29 01:40:54;;;;;;;51.70;22.48;;;;;;;3.84;100.00;99701.84;1977602;28;20041;-73
2022/09/29 01:42:05;;;;;;;49.63;21.15;;;;;;;3.79;100.00;99695.16;1977502;28;20031;-74
2022/09/29 01:43:13;;;;;;;55.28;23.08;;;;;;;3.76;100.00;99698.66;1976926;28;20302;-73
2022/09/29 01:44:25;;;;;;;49.50;23.13;;;;;;;3.79;100.00;99698.59;1976940;28;20029;-75
2022/09/29 01:45:31;;;;;;;55.53;23.35;;;;;;;3.74;100.00;99696.13;1977205;28;20032;-72
2022/09/29 01:47:13;;;;;;;55.67;22.77;;;;;;;3.73;100.00;99696.22;1977476;28;20056;-74
2022/09/29 01:48:21;;;;;;;50.25;21.50;;;;;;;3.81;100.00;99693.38;1968574;28;20131;-72
2022/09/29 01:49:25;;;;;;;52.50;23.02;;;;;;;3.90;100.00;99699.97;1977491;28;20134;-74
2022/09/29 01:50:32;;;;;;;54.72;24.27;;;;;;;3.91;100.00;99693.91;1977458;28;20493;-74
2022/09/29 01:51:44;;;;;;;57.35;23.75;;;;;;;3.94;100.00;99697.22;1977494;28;20074;-73
2022/09/29 01:52:48;;;;;;;59.08;24.92;;;;;;;3.92;100.00;99703.34;1977364;28;20118;-74
2022/09/29 01:53:52;;;;;;;64.65;26.23;;;;;;;3.89;100.00;99698.25;1977436;28;20028;-73
2022/09/29 01:55:14;;;;;;;61.75;25.65;;;;;;;3.85;100.00;99700.97;1977434;28;20051;-73
2022/09/29 01:56:27;;;;;;;50.17;23.27;;;;;;;3.81;100.00;99699.38;1977202;28;20029;-75
2022/09/29 01:57:34;;;;;;;61.97;24.98;;;;;;;3.78;100.00;99702.06;1977434;28;20061;-73
2022/09/29 01:58:57;;;;;;;54.97;24.58;;;;;;;3.80;100.00;99697.69;1977375;28;20082;-74
2022/09/29 02:00:10;;;;;;;57.60;24.33;;;;;;;3.82;100.00;99698.50;1977357;28;20025;-72
2022/09/29 02:01:14;;;;;;;60.42;25.70;;;;;;;3.83;100.00;99694.19;1977350;28;20033;-73
2022/09/29 02:02:26;;;;;;;62.35;26.13;;;;;;;3.83;100.00;99694.19;1976751;28;20036;-73
2022/09/29 02:03:34;;;;;;;62.67;24.67;;;;;;;3.80;100.00;99700.25;1976967;28;20036;-73
2022/09/29 02:04:48;;;;;;;60.42;25.30;;;;;;;3.81;100.00;99699.38;1977371;28;20061;-74
2022/09/29 02:05:54;;;;;;;59.47;25.05;;;;;;;3.78;100.00;99696.03;1977447;28;20025;-73
2022/09/29 02:07:12;;;;;;;61.65;25.48;;;;;;;3.76;100.00;99705.59;1976668;28;20044;-74
2022/09/29 02:08:31;;;;;;;62.20;25.15;;;;;;;3.76;100.00;99697.84;1970886;28;20471;-73
2022/09/29 02:09:39;;;;;;;64.75;24.75;;;;;;;3.76;100.00;99696.09;1976987;28;20330;-73
2022/09/29 02:10:49;;;;;;;64.82;25.33;;;;;;;3.73;100.00;99699.63;1976765;28;20480;-73
2022/09/29 02:11:50;;;;;;;58.30;24.52;;;;;;;3.74;100.00;99695.31;1976981;28;20030;-73
2022/09/29 02:12:52;;;;;;;60.28;24.88;;;;;;;3.71;100.00;99698.84;1977227;28;20029;-72
2022/09/29 02:14:07;;;;;;;59.08;24.80;;;;;;;3.72;100.00;99694.50;1977383;28;20026;-74
2022/09/29 02:15:11;;;;;;;71.10;25.60;;;;;;;3.69;100.00;99697.19;1974262;28;20063;-72
2022/09/29 02:16:13;;;;;;;69.65;26.63;;;;;;;3.70;100.00;99688.56;1976729;28;20065;-72
2022/09/29 02:17:18;;;;;;;70.57;27.25;;;;;;;3.72;100.00;99699.66;1976774;28;20041;-73
2022/09/29 02:18:23;;;;;;;61.50;25.77;;;;;;;3.70;100.00;99694.56;1976842;28;20120;-73
2022/09/29 02:19:32;;;;;;;66.95;27.17;;;;;;;3.72;100.00;99697.94;1978091;28;20052;-72
2022/09/29 02:20:30;;;;;;;68.50;27.25;;;;;;;3.72;100.00;99702.25;1978388;28;20088;-74
2022/09/29 02:21:27;;;;;;;64.38;26.92;;;;;;;3.75;100.00;99699.56;1978354;28;20032;-73
2022/09/29 02:22:25;;;;;;;67.30;28.05;;;;;;;3.74;100.00;99700.47;1978946;28;20167;-74
2022/09/29 02:23:22;;;;;;;68.45;27.55;;;;;;;3.72;100.00;99702.25;1978933;28;20032;-75
2022/09/29 02:24:23;;;;;;;66.57;28.30;;;;;;;3.70;100.00;99702.28;1978856;28;20112;-73
2022/09/29 02:25:22;;;;;;;70.60;26.90;;;;;;;3.66;100.00;99698.13;1978243;28;20025;-72
2022/09/29 02:26:22;;;;;;;68.75;27.52;;;;;;;3.65;100.00;99700.75;1978452;28;20411;-73
2022/09/29 02:27:21;;;;;;;71.05;27.65;;;;;;;3.68;100.00;99703.25;1985804;28;20078;-72
2022/09/29 02:28:19;;;;;;;71.85;28.02;;;;;;;3.73;100.00;99699.63;1979178;28;20036;-74
2022/09/29 02:29:17;;;;;;;65.25;27.45;;;;;;;3.73;100.00;99698.78;1978935;28;20386;-72
2022/09/29 02:30:14;;;;;;;69.22;28.67;;;;;;;3.72;100.00;99707.41;1978236;28;20076;-73
2022/09/29 02:31:13;;;;;;;73.13;29.42;;;;;;;3.70;100.00;99698.88;1978282;28;20106;-73
2022/09/29 02:32:12;;;;;;;81.43;30.20;;;;;;;3.73;100.00;99698.78;1978787;28;20050;-72
2022/09/29 02:33:24;;;;;;;76.93;29.02;;;;;;;3.69;100.00;99708.34;1979041;28;20059;-74
2022/09/29 02:34:23;;;;;;;74.72;28.17;;;;;;;3.66;100.00;99703.28;1978840;28;20063;-72
2022/09/29 02:35:21;;;;;;;73.20;26.70;;;;;;;3.66;100.00;99707.63;1978953;28;20033;-73
2022/09/29 02:37:03;;;;;;;72.47;27.63;;;;;;;3.65;100.00;99695.59;1978849;28;20184;-73
2022/09/29 02:38:17;;;;;;;66.70;25.10;;;;;;;3.62;100.00;99700.88;1978869;28;20033;-72
2022/09/29 02:39:46;;;;;;;70.75;26.63;;;;;;;3.67;100.00;99701.56;1978826;28;20032;-72
2022/09/29 02:41:14;;;;;;;66.35;26.30;;;;;;;3.64;100.00;99704.22;1978855;28;20040;-73
2022/09/29 02:42:39;;;;;;;65.47;24.25;;;;;;;3.59;100.00;99696.63;1978795;28;20039;-72
2022/09/29 02:43:48;;;;;;;59.65;22.98;;;;;;;3.55;100.00;99697.63;1978893;28;20032;-71
2022/09/29 02:45:16;;;;;;;61.88;24.65;;;;;;;3.53;100.00;99702.84;1976496;28;20129;-71
2022/09/29 02:46:38;;;;;;;62.78;24.25;;;;;;;3.50;100.00;99702.94;1978651;28;20025;-73
2022/09/29 02:47:57;;;;;;;58.28;23.27;;;;;;;3.50;100.00;99708.09;1978878;28;20037;-72
2022/09/29 02:49:22;;;;;;;69.50;24.67;;;;;;;3.47;100.00;99703.03;1978686;28;20649;-72
2022/09/29 02:50:49;;;;;;;57.58;22.65;;;;;;;3.45;100.00;99699.66;1978626;28;20033;-72
2022/09/29 02:51:55;;;;;;;69.38;25.08;;;;;;;3.43;100.00;99701.44;1978796;28;20123;-71
2022/09/29 02:53:07;;;;;;;64.68;25.50;;;;;;;3.43;100.00;99704.88;1978043;28;20025;-72
2022/09/29 02:54:31;;;;;;;70.95;25.42;;;;;;;3.41;100.00;99704.06;1978265;28;20032;-72
2022/09/29 02:55:48;;;;;;;66.85;25.23;;;;;;;3.42;100.00;99700.59;1978133;28;20071;-74
2022/09/29 02:57:10;;;;;;;69.53;25.25;;;;;;;3.40;100.00;99698.94;1978161;28;20070;-72
2022/09/29 02:58:24;;;;;;;74.70;26.00;;;;;;;3.39;100.00;99699.84;1978049;28;20029;-71
2022/09/29 02:59:44;;;;;;;67.60;26.13;;;;;;;3.38;100.00;99698.19;1978153;28;20084;-75
2022/09/29 03:00:43;;;;;;;64.13;25.35;;;;;;;3.35;100.00;99699.94;1978589;28;20103;-74
2022/09/29 03:01:53;;;;;;;75.63;26.90;;;;;;;3.37;100.00;99704.19;1978821;28;20032;-72
2022/09/29 03:02:50;;;;;;;72.38;26.48;;;;;;;3.36;100.00;99695.63;1978524;28;20382;-72
2022/09/29 03:03:48;;;;;;;82.72;27.92;;;;;;;3.34;100.00;99695.69;1978682;28;20043;-72
2022/09/29 03:04:45;;;;;;;77.22;27.83;;;;;;;3.34;100.00;99698.25;1978731;28;20114;-73
2022/09/29 03:05:43;;;;;;;83.97;30.40;;;;;;;3.34;100.00;99698.25;1978605;28;20403;-74
2022/09/29 03:06:40;;;;;;;80.45;29.25;;;;;;;3.37;100.00;99705.06;1978675;28;20030;-72
2022/09/29 03:07:39;;;;;;;89.57;30.58;;;;;;;3.36;100.00;99695.63;1978764;28;20048;-73
2022/09/29 03:08:36;;;;;;;83.43;30.00;;;;;;;3.37;100.00;99704.19;1978622;28;20150;-72
2022/09/29 03:09:33;;;;;;;85.60;30.92;;;;;;;3.34;100.00;99702.56;1978506;28;20099;-72
2022/09/29 03:10:31;;;;;;;92.35;31.15;;;;;;;3.33;100.00;99700.88;1978640;28;20033;-74
2022/09/29 03:11:28;;;;;;;88.43;30.48;;;;;;;3.31;100.00;99698.34;1978540;28;20045;-72
2022/09/29 03:12:25;;;;;;;88.93;31.13;;;;;;;3.30;100.00;99704.41;1978676;28;20483;-72
2022/09/29 03:13:23;;;;;;;83.97;30.20;;;;;;;3.30;100.00;99703.56;1978399;28;20386;-72
2022/09/29 03:14:20;;;;;;;84.05;29.40;;;;;;;3.29;100.00;99699.28;1977818;28;20063;-73
2022/09/29 03:15:18;;;;;;;84.28;29.60;;;;;;;3.29;100.00;99710.44;1976996;28;20041;-72
2022/09/29 03:16:15;;;;;;;85.85;30.88;;;;;;;3.30;100.00;99700.97;1978629;28;20424;-72
2022/09/29 03:17:12;;;;;;;80.68;29.35;;;;;;;3.28;100.00;99707.94;1978729;28;20044;-72
2022/09/29 03:18:10;;;;;;;79.03;29.20;;;;;;;3.27;100.00;99704.50;1978542;28;20061;-72
2022/09/29 03:19:07;;;;;;;72.13;28.42;;;;;;;3.27;100.00;99701.91;1978611;28;20034;-74
2022/09/29 03:20:06;;;;;;;85.55;29.10;;;;;;;3.26;100.00;99696.81;1977770;28;20064;-71
2022/09/29 03:21:04;;;;;;;71.72;27.55;;;;;;;3.24;100.00;99701.19;1978086;28;20110;-72
2022/09/29 03:22:02;;;;;;;79.90;28.13;;;;;;;3.24;100.00;99699.44;1978437;28;20034;-72
2022/09/29 03:22:59;;;;;;;75.97;28.33;;;;;;;3.24;100.00;99699.44;1978583;28;20021;-72
2022/09/29 03:23:57;;;;;;;80.28;29.52;;;;;;;3.24;100.00;99696.84;1978458;28;20042;-72
2022/09/29 03:24:54;;;;;;;86.50;29.48;;;;;;;3.25;100.00;99702.84;1977846;28;20040;-72
2022/09/29 03:25:52;;;;;;;80.72;29.80;;;;;;;3.24;100.00;99704.59;1977839;28;20033;-72
2022/09/29 03:26:50;;;;;;;82.38;30.65;;;;;;;3.27;100.00;99706.22;1978488;28;20029;-71
2022/09/29 03:27:49;;;;;;;85.45;30.42;;;;;;;3.27;100.00;99707.06;1978437;28;20029;-71
2022/09/29 03:28:46;;;;;;;83.10;30.40;;;;;;;3.26;100.00;99702.81;1978494;28;20507;-72
2022/09/29 03:29:43;;;;;;;81.25;29.48;;;;;;;3.26;100.00;99705.41;1978584;28;20021;-72
2022/09/29 03:30:41;;;;;;;79.72;29.38;;;;;;;3.25;100.00;99702.84;1978263;28;20086;-72
2022/09/29 03:31:39;;;;;;;83.22;29.25;;;;;;;3.23;100.00;99695.16;1978591;28;20055;-73
2022/09/29 03:32:36;;;;;;;86.78;29.83;;;;;;;3.22;100.00;99703.81;1978423;28;20060;-71
2022/09/29 03:33:37;;;;;;;82.85;30.00;;;;;;;3.20;100.00;99696.09;1978511;28;20034;-72
2022/09/29 03:34:34;;;;;;;;;;;;;;;3.21;100.00;99702.09;1978865;28;20119;-71
2022/09/29 03:35:32;;;;;;;70.65;25.80;;;;;;;3.24;100.00;99696.84;1978501;28;19927;-72
2022/09/29 03:36:30;;;;;;;79.03;27.42;;;;;;;3.24;100.00;99702.00;1978341;28;20436;-72
2022/09/29 03:37:27;;;;;;;80.45;29.42;;;;;;;3.24;100.00;99696.84;1978251;28;20112;-72
2022/09/29 03:38:25;;;;;;;77.35;29.25;;;;;;;3.26;100.00;99699.38;1978343;28;20021;-72
2022/09/29 03:39:24;;;;;;;85.18;29.50;;;;;;;3.27;100.00;99699.34;1978414;28;20033;-72
2022/09/29 03:40:21;;;;;;;82.00;29.00;;;;;;;3.30;100.00;99701.81;1978455;28;20520;-71
2022/09/29 03:41:18;;;;;;;79.40;30.05;;;;;;;3.27;100.00;99699.34;1978396;28;20047;-73
2022/09/29 03:42:16;;;;;;;80.82;30.08;;;;;;;3.31;100.00;99697.50;1978465;28;20063;-71
2022/09/29 03:43:13;;;;;;;78.80;28.73;;;;;;;3.29;100.00;99700.13;1978405;28;20040;-70
2022/09/29 03:44:10;;;;;;;79.47;29.38;;;;;;;3.28;100.00;99706.19;1978435;28;20025;-72
2022/09/29 03:45:08;;;;;;;89.60;30.00;;;;;;;3.26;100.00;99702.81;1975942;28;20025;-71
2022/09/29 03:46:06;;;;;;;79.90;29.60;;;;;;;3.22;100.00;99704.63;1978364;28;20033;-73
2022/09/29 03:47:03;;;;;;;83.22;29.38;;;;;;;3.20;100.00;99700.41;1978285;28;20500;-71
2022/09/29 03:48:01;;;;;;;78.85;28.85;;;;;;;3.19;100.00;99698.72;1978408;28;20025;-72
2022/09/29 03:48:58;;;;;;;85.40;29.77;;;;;;;3.15;100.00;99705.69;1977647;28;20038;-71
2022/09/29 03:49:55;;;;;;;82.55;29.33;;;;;;;3.14;100.00;99701.44;1977737;28;20458;-72
2022/09/29 03:50:54;;;;;;;81.60;29.17;;;;;;;3.13;100.00;99701.47;1978197;28;20028;-71
2022/09/29 03:51:51;;;;;;;89.53;29.45;;;;;;;3.12;100.00;99697.22;1978331;28;20027;-73
2022/09/29 03:52:48;;;;;;;87.75;29.92;;;;;;;3.13;100.00;99698.91;1978309;28;20401;-71
2022/09/29 03:53:46;;;;;;;91.30;29.25;;;;;;;3.13;100.00;99709.22;1978310;28;20067;-74
2022/09/29 03:54:43;;;;;;;85.00;29.23;;;;;;;3.13;100.00;99704.06;1978423;28;20066;-71
2022/09/29 03:55:46;;;;;;;86.45;30.38;;;;;;;3.13;100.00;99704.91;1978292;28;20029;-72
2022/09/29 03:56:43;;;;;;;84.82;29.83;;;;;;;3.10;100.00;99699.84;1978335;28;20049;-72
2022/09/29 03:57:41;;;;;;;79.57;28.70;;;;;;;3.10;100.00;99705.00;1978232;28;20136;-71
2022/09/29 03:58:38;;;;;;;98.50;29.85;;;;;;;3.08;100.00;99705.03;1978327;28;20488;-71
2022/09/29 03:59:35;;;;;;;87.55;29.23;;;;;;;3.08;100.00;99701.63;1978149;28;20032;-71
2022/09/29 04:00:33;;;;;;;78.15;29.00;;;;;;;3.07;100.00;99705.94;1978266;28;20039;-72
2022/09/29 04:01:31;;;;;;;75.43;28.13;;;;;;;3.08;100.00;99706.78;1978237;28;20045;-71
2022/09/29 04:02:28;;;;;;;79.00;29.35;;;;;;;3.07;100.00;99707.66;1978218;28;20037;-72
2022/09/29 04:03:27;;;;;;;80.70;29.90;;;;;;;3.08;100.00;99706.78;1978234;28;20081;-72
2022/09/29 04:04:24;;;;;;;82.18;28.90;;;;;;;3.09;100.00;99704.13;1978299;28;20113;-72
2022/09/29 04:05:22;;;;;;;84.47;29.35;;;;;;;3.07;100.00;99711.09;1978174;28;20025;-73
2022/09/29 04:06:19;;;;;;;82.40;28.30;;;;;;;3.04;100.00;99713.75;1978227;28;20035;-72
2022/09/29 04:07:17;;;;;;;86.65;29.10;;;;;;;3.03;100.00;99711.22;1978400;28;20021;-71
2022/09/29 04:08:15;;;;;;;73.95;28.35;;;;;;;3.01;100.00;99713.84;1978181;28;20095;-71
2022/09/29 04:09:13;;;;;;;85.13;29.65;;;;;;;3.00;100.00;99704.44;1978191;28;20043;-72
2022/09/29 04:10:10;;;;;;;89.68;30.73;;;;;;;2.98;100.00;99710.50;1978163;28;20059;-72
2022/09/29 04:11:08;;;;;;;84.15;29.13;;;;;;;2.96;100.00;99715.72;1978223;28;20044;-71
2022/09/29 04:12:05;;;;;;;91.05;29.55;;;;;;;2.96;100.00;99718.28;1978137;28;20079;-73
2022/09/29 04:13:04;;;;;;;90.25;28.63;;;;;;;2.93;100.00;99714.06;1978221;28;20502;-71
2022/09/29 04:14:02;;;;;;;79.85;28.80;;;;;;;2.92;100.00;99719.28;1978042;28;20032;-71
2022/09/29 04:15:00;;;;;;;76.85;28.88;;;;;;;2.91;100.00;99720.16;1975809;28;20108;-71
2022/09/29 04:16:04;;;;;;;85.20;29.77;;;;;;;2.89;100.00;99724.50;1977428;28;20021;-72
2022/09/29 04:17:01;;;;;;;86.88;27.73;;;;;;;2.87;100.00;99724.53;1969711;28;20060;-72
2022/09/29 04:17:59;;;;;;;73.97;27.15;;;;;;;2.86;100.00;99724.59;1977550;28;20024;-72
2022/09/29 04:18:56;;;;;;;79.75;28.25;;;;;;;2.86;100.00;99724.59;1978118;28;20039;-71
2022/09/29 04:19:54;;;;;;;82.93;27.90;;;;;;;2.82;100.00;99719.53;1978076;28;20029;-71
2022/09/29 04:20:53;;;;;;;79.43;27.33;;;;;;;2.84;100.00;99724.63;1978033;28;20031;-71
2022/09/29 04:21:50;;;;;;;78.13;29.02;;;;;;;2.86;100.00;99722.00;1978133;28;20057;-73
2022/09/29 04:22:48;;;;;;;77.32;28.45;;;;;;;2.87;100.00;99723.72;1978078;28;20518;-71
2022/09/29 04:23:46;;;;;;;75.28;28.95;;;;;;;2.87;100.00;99723.72;1978107;28;20498;-71
2022/09/29 04:24:46;;;;;;;89.72;29.38;;;;;;;2.84;100.00;99727.19;1978015;28;20545;-72
2022/09/29 04:25:44;;;;;;;90.22;29.40;;;;;;;2.84;100.00;99724.63;1978080;28;20039;-72
2022/09/29 04:26:41;;;;;;;91.50;29.80;;;;;;;2.85;100.00;99722.91;1977906;28;20025;-71
2022/09/29 04:27:39;;;;;;;90.40;29.50;;;;;;;2.86;100.00;99734.91;1978130;28;20034;-71
2022/09/29 04:28:39;;;;;;;90.10;28.58;;;;;;;2.86;100.00;99732.31;1977978;28;20032;-72
2022/09/29 04:29:36;;;;;;;86.65;29.40;;;;;;;2.86;100.00;99729.75;1978116;28;20045;-73
2022/09/29 04:30:33;;;;;;;88.70;30.08;;;;;;;2.87;100.00;99731.44;1977927;28;20498;-71
2022/09/29 04:31:31;;;;;;;85.72;29.67;;;;;;;2.88;100.00;99735.72;1978122;28;20072;-73
2022/09/29 04:32:28;;;;;;;83.65;28.35;;;;;;;2.86;100.00;99734.91;1977958;28;20050;-71
2022/09/29 04:33:26;;;;;;;86.78;28.55;;;;;;;2.83;100.00;99734.09;1978021;28;20091;-73
2022/09/29 04:34:24;;;;;;;79.82;28.67;;;;;;;2.82;100.00;99731.56;1978000;28;20373;-73
2022/09/29 04:35:22;;;;;;;85.53;29.90;;;;;;;2.79;100.00;99732.50;1977998;28;20087;-73
2022/09/29 04:36:19;;;;;;;84.50;29.65;;;;;;;2.78;100.00;99729.97;1978041;28;20041;-73
2022/09/29 04:37:16;;;;;;;100.10;30.90;;;;;;;2.77;100.00;99734.25;1977869;28;20143;-72
2022/09/29 04:38:14;;;;;;;79.45;27.90;;;;;;;2.75;100.00;99730.91;1977885;28;20216;-71
2022/09/29 04:39:11;;;;;;;77.15;28.48;;;;;;;2.75;100.00;99733.47;1977811;28;20035;-72
2022/09/29 04:40:10;;;;;;;80.88;28.85;;;;;;;2.72;100.00;99730.97;1977922;28;20457;-71
2022/09/29 04:41:08;;;;;;;85.35;29.30;;;;;;;2.71;100.00;99729.31;1977310;28;20035;-71
2022/09/29 04:42:05;;;;;;;77.30;29.88;;;;;;;2.72;100.00;99730.97;1976914;28;20041;-72
2022/09/29 04:43:04;;;;;;;83.30;28.70;;;;;;;2.74;100.00;99734.34;1977809;28;20164;-71
2022/09/29 04:44:01;;;;;;;81.95;29.27;;;;;;;2.79;100.00;99741.97;1977332;28;20036;-71
2022/09/29 04:44:59;;;;;;;79.45;28.00;;;;;;;2.82;100.00;99741.88;1974925;28;20029;-72
2022/09/29 04:46:06;;;;;;;81.90;28.65;;;;;;;2.84;100.00;99740.09;1977747;28;20029;-72
2022/09/29 04:47:03;;;;;;;87.18;29.23;;;;;;;2.82;100.00;99742.75;1977814;28;20127;-72
2022/09/29 04:48:01;;;;;;;92.70;29.17;;;;;;;2.80;100.00;99741.91;1978056;28;20035;-71
2022/09/29 04:48:58;;;;;;;90.68;28.98;;;;;;;2.79;100.00;99735.09;1977913;28;20035;-72
2022/09/29 04:49:55;;;;;;;89.00;29.27;;;;;;;2.77;100.00;99739.41;1977201;28;20097;-71
2022/09/29 04:50:53;;;;;;;81.38;28.25;;;;;;;2.75;100.00;99736.06;1977255;28;20039;-71